sensor_id;sensor_type;location;lat;lon;timestamp;pressure;altitude;pressure_sealevel;temperature;humidity
15932;BME280;8065;49.520;11.284;2022-07-10T00:00:25;98016.00;;;18.84;94.31
15932;BME280;8065;49.520;11.284;2022-07-10T00:02:53;98022.13;;;18.81;94.03
15932;BME280;8065;49.520;11.284;2022-07-10T00:05:20;98027.38;;;18.74;94.10
15932;BME280;8065;49.520;11.284;2022-07-10T00:07:47;98029.78;;;18.79;93.72
15932;BME280;8065;49.520;11.284;2022-07-10T00:10:14;98022.75;;;18.74;93.43
15932;BME280;8065;49.520;11.284;2022-07-10T00:12:40;98024.47;;;18.63;93.65
15932;BME280;8065;49.520;11.284;2022-07-10T00:15:07;98018.31;;;18.62;92.72
15932;BME280;8065;49.520;11.284;2022-07-10T00:17:34;98017.91;;;18.60;91.88
15932;BME280;8065;49.520;11.284;2022-07-10T00:20:06;98012.34;;;18.53;90.81
15932;BME280;8065;49.520;11.284;2022-07-10T00:22:33;98012.63;;;18.48;91.21
15932;BME280;8065;49.520;11.284;2022-07-10T00:25:01;98008.03;;;18.49;90.94
15932;BME280;8065;49.520;11.284;2022-07-10T00:27:27;98009.09;;;18.44;90.78
15932;BME280;8065;49.520;11.284;2022-07-10T00:29:54;98003.78;;;18.48;90.79
15932;BME280;8065;49.520;11.284;2022-07-10T00:32:20;98004.28;;;18.34;91.77
15932;BME280;8065;49.520;11.284;2022-07-10T00:34:47;98005.91;;;18.39;91.31
15932;BME280;8065;49.520;11.284;2022-07-10T00:37:14;98008.97;;;18.37;91.20
15932;BME280;8065;49.520;11.284;2022-07-10T00:39:41;98007.13;;;18.22;91.38
15932;BME280;8065;49.520;11.284;2022-07-10T00:42:08;98003.03;;;18.28;91.89
15932;BME280;8065;49.520;11.284;2022-07-10T00:44:36;97992.50;;;18.19;91.83
15932;BME280;8065;49.520;11.284;2022-07-10T00:47:03;98007.44;;;18.17;92.04
15932;BME280;8065;49.520;11.284;2022-07-10T00:49:30;98000.94;;;18.18;91.84
15932;BME280;8065;49.520;11.284;2022-07-10T00:51:57;97999.22;;;18.10;92.46
15932;BME280;8065;49.520;11.284;2022-07-10T00:54:26;97997.53;;;18.01;92.72
15932;BME280;8065;49.520;11.284;2022-07-10T00:56:54;97995.25;;;18.04;92.71
15932;BME280;8065;49.520;11.284;2022-07-10T00:59:21;98000.50;;;17.96;93.14
15932;BME280;8065;49.520;11.284;2022-07-10T01:01:49;98003.63;;;17.98;93.12
15932;BME280;8065;49.520;11.284;2022-07-10T01:04:16;98002.06;;;17.97;93.18
15932;BME280;8065;49.520;11.284;2022-07-10T01:06:43;98005.16;;;17.99;93.01
15932;BME280;8065;49.520;11.284;2022-07-10T01:09:09;97996.59;;;17.94;93.24
15932;BME280;8065;49.520;11.284;2022-07-10T01:11:37;98001.19;;;17.93;93.23
15932;BME280;8065;49.520;11.284;2022-07-10T01:14:04;98006.00;;;17.84;93.82
15932;BME280;8065;49.520;11.284;2022-07-10T01:16:31;98005.34;;;17.72;94.56
15932;BME280;8065;49.520;11.284;2022-07-10T01:18:58;98000.75;;;17.72;94.46
15932;BME280;8065;49.520;11.284;2022-07-10T01:21:27;98004.13;;;17.69;94.39
15932;BME280;8065;49.520;11.284;2022-07-10T01:23:54;97996.50;;;17.71;94.17
15932;BME280;8065;49.520;11.284;2022-07-10T01:26:21;97989.13;;;17.68;94.29
15932;BME280;8065;49.520;11.284;2022-07-10T01:28:50;97990.69;;;17.69;94.17
15932;BME280;8065;49.520;11.284;2022-07-10T01:31:17;97984.84;;;17.83;93.48
15932;BME280;8065;49.520;11.284;2022-07-10T01:33:44;97991.16;;;17.90;92.62
15932;BME280;8065;49.520;11.284;2022-07-10T01:36:11;97993.13;;;17.93;92.45
15932;BME280;8065;49.520;11.284;2022-07-10T01:38:39;97995.41;;;17.91;92.15
15932;BME280;8065;49.520;11.284;2022-07-10T01:41:05;97993.41;;;17.88;92.39
15932;BME280;8065;49.520;11.284;2022-07-10T01:43:33;97996.38;;;17.83;92.69
15932;BME280;8065;49.520;11.284;2022-07-10T01:46:00;97995.69;;;17.86;92.61
15932;BME280;8065;49.520;11.284;2022-07-10T01:48:26;98000.19;;;17.82;93.10
15932;BME280;8065;49.520;11.284;2022-07-10T01:50:53;97998.84;;;17.73;93.30
15932;BME280;8065;49.520;11.284;2022-07-10T01:53:19;98011.16;;;17.58;93.83
15932;BME280;8065;49.520;11.284;2022-07-10T01:55:47;98006.63;;;17.62;93.17
15932;BME280;8065;49.520;11.284;2022-07-10T01:58:14;98012.00;;;17.62;92.95
15932;BME280;8065;49.520;11.284;2022-07-10T02:00:41;98016.69;;;17.65;92.83
15932;BME280;8065;49.520;11.284;2022-07-10T02:03:07;98007.59;;;17.69;92.55
15932;BME280;8065;49.520;11.284;2022-07-10T02:05:51;98012.63;;;17.71;92.91
15932;BME280;8065;49.520;11.284;2022-07-10T02:08:17;98006.13;;;17.72;92.89
15932;BME280;8065;49.520;11.284;2022-07-10T02:10:44;98009.09;;;17.67;93.41
15932;BME280;8065;49.520;11.284;2022-07-10T02:13:12;98012.00;;;17.62;93.61
15932;BME280;8065;49.520;11.284;2022-07-10T02:15:40;98013.78;;;17.38;94.11
15932;BME280;8065;49.520;11.284;2022-07-10T02:18:06;98011.44;;;17.37;94.08
15932;BME280;8065;49.520;11.284;2022-07-10T02:20:33;98010.38;;;17.22;95.01
15932;BME280;8065;49.520;11.284;2022-07-10T02:23:00;98005.00;;;17.22;94.80
15932;BME280;8065;49.520;11.284;2022-07-10T02:25:27;98007.84;;;17.14;95.30
15932;BME280;8065;49.520;11.284;2022-07-10T02:27:54;98011.75;;;17.16;95.37
15932;BME280;8065;49.520;11.284;2022-07-10T02:30:22;98013.56;;;16.96;96.49
15932;BME280;8065;49.520;11.284;2022-07-10T02:32:48;98009.84;;;17.01;96.33
15932;BME280;8065;49.520;11.284;2022-07-10T02:35:15;98010.28;;;16.87;97.37
15932;BME280;8065;49.520;11.284;2022-07-10T02:37:41;98008.03;;;16.89;97.26
15932;BME280;8065;49.520;11.284;2022-07-10T02:40:08;98005.25;;;16.86;97.24
15932;BME280;8065;49.520;11.284;2022-07-10T02:42:35;98010.34;;;16.91;96.77
15932;BME280;8065;49.520;11.284;2022-07-10T02:45:01;98019.72;;;16.97;96.97
15932;BME280;8065;49.520;11.284;2022-07-10T02:47:29;98020.06;;;17.11;95.97
15932;BME280;8065;49.520;11.284;2022-07-10T02:49:56;98020.25;;;17.18;95.49
15932;BME280;8065;49.520;11.284;2022-07-10T02:52:22;98014.53;;;17.20;94.41
15932;BME280;8065;49.520;11.284;2022-07-10T02:54:49;98005.00;;;17.22;93.02
15932;BME280;8065;49.520;11.284;2022-07-10T02:57:16;98014.34;;;17.28;92.09
15932;BME280;8065;49.520;11.284;2022-07-10T02:59:42;98015.22;;;17.32;91.24
15932;BME280;8065;49.520;11.284;2022-07-10T03:02:09;98021.38;;;17.33;90.23
15932;BME280;8065;49.520;11.284;2022-07-10T03:04:37;98025.97;;;17.32;89.22
15932;BME280;8065;49.520;11.284;2022-07-10T03:07:04;98024.78;;;17.33;88.99
15932;BME280;8065;49.520;11.284;2022-07-10T03:09:31;98018.28;;;17.34;87.82
15932;BME280;8065;49.520;11.284;2022-07-10T03:11:57;98019.72;;;17.28;87.62
15932;BME280;8065;49.520;11.284;2022-07-10T03:14:24;98015.31;;;17.20;87.41
15932;BME280;8065;49.520;11.284;2022-07-10T03:16:51;98012.63;;;17.20;86.93
15932;BME280;8065;49.520;11.284;2022-07-10T03:19:17;98021.81;;;17.19;87.15
15932;BME280;8065;49.520;11.284;2022-07-10T03:21:45;98021.38;;;17.17;86.13
15932;BME280;8065;49.520;11.284;2022-07-10T03:24:12;98022.66;;;17.23;86.14
15932;BME280;8065;49.520;11.284;2022-07-10T03:26:38;98034.81;;;17.17;86.12
15932;BME280;8065;49.520;11.284;2022-07-10T03:29:05;98028.81;;;17.08;86.38
15932;BME280;8065;49.520;11.284;2022-07-10T03:31:31;98036.97;;;17.12;86.17
15932;BME280;8065;49.520;11.284;2022-07-10T03:33:58;98027.88;;;17.00;86.15
15932;BME280;8065;49.520;11.284;2022-07-10T03:36:24;98028.91;;;16.96;86.19
15932;BME280;8065;49.520;11.284;2022-07-10T03:38:53;98033.22;;;17.00;86.34
15932;BME280;8065;49.520;11.284;2022-07-10T03:41:20;98040.50;;;17.00;86.67
15932;BME280;8065;49.520;11.284;2022-07-10T03:43:46;98031.75;;;17.03;85.97
15932;BME280;8065;49.520;11.284;2022-07-10T03:46:12;98029.34;;;16.98;85.80
15932;BME280;8065;49.520;11.284;2022-07-10T03:48:39;98036.94;;;16.96;85.66
15932;BME280;8065;49.520;11.284;2022-07-10T03:51:05;98038.25;;;17.02;85.84
15932;BME280;8065;49.520;11.284;2022-07-10T03:53:32;98033.56;;;16.99;84.15
15932;BME280;8065;49.520;11.284;2022-07-10T03:56:00;98032.88;;;17.02;84.44
15932;BME280;8065;49.520;11.284;2022-07-10T03:58:26;98028.38;;;17.06;83.73
15932;BME280;8065;49.520;11.284;2022-07-10T04:00:52;98024.66;;;17.11;83.72
15932;BME280;8065;49.520;11.284;2022-07-10T04:03:19;98029.84;;;17.03;84.07
15932;BME280;8065;49.520;11.284;2022-07-10T04:05:45;98030.47;;;16.97;83.63
15932;BME280;8065;49.520;11.284;2022-07-10T04:08:12;98033.56;;;16.99;82.93
15932;BME280;8065;49.520;11.284;2022-07-10T04:10:38;98034.09;;;16.89;83.19
15932;BME280;8065;49.520;11.284;2022-07-10T04:13:06;98033.16;;;16.97;82.58
15932;BME280;8065;49.520;11.284;2022-07-10T04:15:32;98025.19;;;17.00;81.95
15932;BME280;8065;49.520;11.284;2022-07-10T04:17:59;98033.50;;;16.95;81.41
15932;BME280;8065;49.520;11.284;2022-07-10T04:20:26;98039.63;;;16.96;79.87
15932;BME280;8065;49.520;11.284;2022-07-10T04:22:52;98028.81;;;16.92;79.69
15932;BME280;8065;49.520;11.284;2022-07-10T04:25:19;98030.91;;;16.99;79.50
15932;BME280;8065;49.520;11.284;2022-07-10T04:27:45;98039.81;;;17.03;79.09
15932;BME280;8065;49.520;11.284;2022-07-10T04:30:13;98030.47;;;16.97;79.81
15932;BME280;8065;49.520;11.284;2022-07-10T04:32:40;98032.03;;;16.98;79.76
15932;BME280;8065;49.520;11.284;2022-07-10T04:35:07;98030.63;;;17.04;80.02
15932;BME280;8065;49.520;11.284;2022-07-10T04:37:34;98030.81;;;17.11;79.46
15932;BME280;8065;49.520;11.284;2022-07-10T04:40:00;98034.88;;;17.21;78.50
15932;BME280;8065;49.520;11.284;2022-07-10T04:42:27;98039.56;;;17.24;78.16
15932;BME280;8065;49.520;11.284;2022-07-10T04:44:54;98035.53;;;17.33;77.67
15932;BME280;8065;49.520;11.284;2022-07-10T04:47:22;98045.34;;;17.42;77.28
15932;BME280;8065;49.520;11.284;2022-07-10T04:49:48;98047.31;;;17.45;76.95
15932;BME280;8065;49.520;11.284;2022-07-10T04:52:15;98049.16;;;17.41;77.10
15932;BME280;8065;49.520;11.284;2022-07-10T04:54:41;98060.06;;;17.48;76.56
15932;BME280;8065;49.520;11.284;2022-07-10T04:57:08;98051.91;;;17.44;76.04
15932;BME280;8065;49.520;11.284;2022-07-10T04:59:34;98050.88;;;17.49;76.29
15932;BME280;8065;49.520;11.284;2022-07-10T05:02:01;98058.59;;;17.34;75.55
15932;BME280;8065;49.520;11.284;2022-07-10T05:04:30;98055.06;;;17.30;76.08
15932;BME280;8065;49.520;11.284;2022-07-10T05:06:57;98058.44;;;17.27;77.64
15932;BME280;8065;49.520;11.284;2022-07-10T05:09:23;98067.03;;;17.17;79.41
15932;BME280;8065;49.520;11.284;2022-07-10T05:11:50;98065.28;;;17.09;80.08
15932;BME280;8065;49.520;11.284;2022-07-10T05:14:16;98071.34;;;17.06;80.66
15932;BME280;8065;49.520;11.284;2022-07-10T05:16:43;98076.19;;;17.00;81.15
15932;BME280;8065;49.520;11.284;2022-07-10T05:19:09;98070.03;;;17.00;81.70
15932;BME280;8065;49.520;11.284;2022-07-10T05:21:37;98068.31;;;16.92;82.02
15932;BME280;8065;49.520;11.284;2022-07-10T05:24:05;98083.47;;;17.00;82.34
15932;BME280;8065;49.520;11.284;2022-07-10T05:26:31;98075.13;;;16.89;82.74
15932;BME280;8065;49.520;11.284;2022-07-10T05:28:58;98073.22;;;16.90;83.28
15932;BME280;8065;49.520;11.284;2022-07-10T05:31:24;98083.28;;;16.93;82.81
15932;BME280;8065;49.520;11.284;2022-07-10T05:33:51;98084.94;;;16.97;82.75
15932;BME280;8065;49.520;11.284;2022-07-10T05:36:17;98088.84;;;17.00;82.45
15932;BME280;8065;49.520;11.284;2022-07-10T05:38:45;98093.88;;;17.01;82.32
15932;BME280;8065;49.520;11.284;2022-07-10T05:41:12;98082.19;;;17.10;82.27
15932;BME280;8065;49.520;11.284;2022-07-10T05:43:38;98091.81;;;17.11;81.93
15932;BME280;8065;49.520;11.284;2022-07-10T05:46:05;98092.16;;;17.09;81.58
15932;BME280;8065;49.520;11.284;2022-07-10T05:48:31;98090.06;;;17.18;81.80
15932;BME280;8065;49.520;11.284;2022-07-10T05:50:58;98088.25;;;17.07;81.68
15932;BME280;8065;49.520;11.284;2022-07-10T05:53:25;98085.41;;;17.15;81.77
15932;BME280;8065;49.520;11.284;2022-07-10T05:55:52;98085.47;;;17.19;81.32
15932;BME280;8065;49.520;11.284;2022-07-10T05:58:19;98086.25;;;17.19;81.30
15932;BME280;8065;49.520;11.284;2022-07-10T06:00:46;98091.63;;;17.19;81.17
15932;BME280;8065;49.520;11.284;2022-07-10T06:03:14;98086.25;;;17.19;81.17
15932;BME280;8065;49.520;11.284;2022-07-10T06:05:40;98088.66;;;16.93;81.12
15932;BME280;8065;49.520;11.284;2022-07-10T06:08:07;98099.75;;;17.07;81.24
15932;BME280;8065;49.520;11.284;2022-07-10T06:10:34;98087.22;;;17.11;80.47
15932;BME280;8065;49.520;11.284;2022-07-10T06:13:02;98090.94;;;17.22;79.93
15932;BME280;8065;49.520;11.284;2022-07-10T06:15:28;98090.50;;;17.04;79.16
15932;BME280;8065;49.520;11.284;2022-07-10T06:17:56;98092.16;;;17.09;78.93
15932;BME280;8065;49.520;11.284;2022-07-10T06:20:23;98083.66;;;17.07;78.64
15932;BME280;8065;49.520;11.284;2022-07-10T06:22:49;98092.50;;;17.23;78.20
15932;BME280;8065;49.520;11.284;2022-07-10T06:25:16;98096.81;;;17.12;78.59
15932;BME280;8065;49.520;11.284;2022-07-10T06:27:42;98091.81;;;17.26;78.11
15932;BME280;8065;49.520;11.284;2022-07-10T06:30:11;98093.69;;;17.42;77.80
15932;BME280;8065;49.520;11.284;2022-07-10T06:32:37;98093.00;;;17.45;77.83
15932;BME280;8065;49.520;11.284;2022-07-10T06:35:05;98096.81;;;17.44;77.62
15932;BME280;8065;49.520;11.284;2022-07-10T06:37:32;98092.31;;;17.48;77.61
15932;BME280;8065;49.520;11.284;2022-07-10T06:39:59;98093.53;;;17.50;76.89
15932;BME280;8065;49.520;11.284;2022-07-10T06:42:25;98094.16;;;17.28;76.55
15932;BME280;8065;49.520;11.284;2022-07-10T06:44:52;98092.22;;;17.44;76.63
15932;BME280;8065;49.520;11.284;2022-07-10T06:47:20;98098.38;;;17.45;76.85
15932;BME280;8065;49.520;11.284;2022-07-10T06:50:05;98091.19;;;17.49;76.64
15932;BME280;8065;49.520;11.284;2022-07-10T06:52:32;98094.31;;;17.51;77.16
15932;BME280;8065;49.520;11.284;2022-07-10T06:55:00;98091.94;;;17.65;76.85
15932;BME280;8065;49.520;11.284;2022-07-10T06:57:27;98087.91;;;17.71;76.85
15932;BME280;8065;49.520;11.284;2022-07-10T06:59:53;98094.41;;;17.70;75.57
15932;BME280;8065;49.520;11.284;2022-07-10T07:02:21;98091.78;;;17.58;75.14
15932;BME280;8065;49.520;11.284;2022-07-10T07:04:48;98099.31;;;17.52;75.16
15932;BME280;8065;49.520;11.284;2022-07-10T07:07:15;98097.94;;;17.58;75.25
15932;BME280;8065;49.520;11.284;2022-07-10T07:09:41;98102.38;;;17.51;75.32
15932;BME280;8065;49.520;11.284;2022-07-10T07:12:09;98096.38;;;17.57;75.53
15932;BME280;8065;49.520;11.284;2022-07-10T07:14:35;98111.81;;;17.60;75.05
15932;BME280;8065;49.520;11.284;2022-07-10T07:17:04;98112.09;;;17.71;75.47
15932;BME280;8065;49.520;11.284;2022-07-10T07:19:33;98109.91;;;17.61;74.01
15932;BME280;8065;49.520;11.284;2022-07-10T07:22:13;98115.81;;;17.66;73.66
15932;BME280;8065;49.520;11.284;2022-07-10T07:24:57;98119.28;;;17.51;71.76
15932;BME280;8065;49.520;11.284;2022-07-10T07:27:24;98121.34;;;17.58;71.92
15932;BME280;8065;49.520;11.284;2022-07-10T07:29:50;98123.84;;;17.35;70.08
15932;BME280;8065;49.520;11.284;2022-07-10T07:32:16;98119.78;;;17.57;70.42
15932;BME280;8065;49.520;11.284;2022-07-10T07:34:44;98122.84;;;17.71;69.80
15932;BME280;8065;49.520;11.284;2022-07-10T07:37:11;98118.66;;;17.89;66.33
15932;BME280;8065;49.520;11.284;2022-07-10T07:39:37;98113.75;;;18.11;66.50
15932;BME280;8065;49.520;11.284;2022-07-10T07:42:04;98115.47;;;18.38;65.95
15932;BME280;8065;49.520;11.284;2022-07-10T07:44:31;98112.78;;;18.38;63.17
15932;BME280;8065;49.520;11.284;2022-07-10T07:46:57;98118.47;;;18.52;63.68
15932;BME280;8065;49.520;11.284;2022-07-10T07:49:24;98120.47;;;18.75;63.92
15932;BME280;8065;49.520;11.284;2022-07-10T07:51:51;98123.16;;;18.94;63.44
15932;BME280;8065;49.520;11.284;2022-07-10T07:54:18;98127.53;;;19.02;63.04
15932;BME280;8065;49.520;11.284;2022-07-10T07:56:44;98131.09;;;19.06;62.64
15932;BME280;8065;49.520;11.284;2022-07-10T07:59:11;98132.09;;;18.79;61.74
15932;BME280;8065;49.520;11.284;2022-07-10T08:01:38;98135.53;;;18.60;61.12
15932;BME280;8065;49.520;11.284;2022-07-10T08:04:04;98131.03;;;18.29;61.74
15932;BME280;8065;49.520;11.284;2022-07-10T08:06:31;98124.97;;;18.32;62.47
15932;BME280;8065;49.520;11.284;2022-07-10T08:08:59;98124.25;;;18.35;62.64
15932;BME280;8065;49.520;11.284;2022-07-10T08:11:25;98120.91;;;18.22;62.24
15932;BME280;8065;49.520;11.284;2022-07-10T08:13:51;98120.00;;;18.34;62.76
15932;BME280;8065;49.520;11.284;2022-07-10T08:16:18;98122.22;;;18.48;62.54
15932;BME280;8065;49.520;11.284;2022-07-10T08:18:44;98113.50;;;18.54;62.38
15932;BME280;8065;49.520;11.284;2022-07-10T08:21:11;98116.91;;;18.51;60.21
15932;BME280;8065;49.520;11.284;2022-07-10T08:23:37;98115.69;;;18.49;59.90
15932;BME280;8065;49.520;11.284;2022-07-10T08:26:05;98115.13;;;18.40;59.47
15932;BME280;8065;49.520;11.284;2022-07-10T08:28:32;98115.56;;;18.42;60.26
15932;BME280;8065;49.520;11.284;2022-07-10T08:30:58;98115.13;;;18.40;60.32
15932;BME280;8065;49.520;11.284;2022-07-10T08:33:26;98109.97;;;18.50;61.04
15932;BME280;8065;49.520;11.284;2022-07-10T08:35:53;98114.63;;;18.53;60.83
15932;BME280;8065;49.520;11.284;2022-07-10T08:38:24;98098.28;;;18.81;60.88
15932;BME280;8065;49.520;11.284;2022-07-10T08:40:51;98105.78;;;18.91;61.65
15932;BME280;8065;49.520;11.284;2022-07-10T08:43:24;98105.66;;;18.65;59.54
15932;BME280;8065;49.520;11.284;2022-07-10T08:45:51;98100.84;;;18.74;60.35
15932;BME280;8065;49.520;11.284;2022-07-10T08:48:22;98103.09;;;18.91;60.54
15932;BME280;8065;49.520;11.284;2022-07-10T08:50:52;98101.06;;;18.85;59.75
15932;BME280;8065;49.520;11.284;2022-07-10T08:53:24;98101.75;;;18.82;58.87
15932;BME280;8065;49.520;11.284;2022-07-10T08:55:54;98101.53;;;18.90;58.88
15932;BME280;8065;49.520;11.284;2022-07-10T08:58:22;98101.59;;;18.94;59.45
15932;BME280;8065;49.520;11.284;2022-07-10T09:00:50;98101.13;;;19.11;59.03
15932;BME280;8065;49.520;11.284;2022-07-10T09:03:16;98097.41;;;19.19;58.99
15932;BME280;8065;49.520;11.284;2022-07-10T09:05:43;98108.31;;;19.26;59.71
15932;BME280;8065;49.520;11.284;2022-07-10T09:08:21;98103.47;;;19.36;59.12
15932;BME280;8065;49.520;11.284;2022-07-10T09:10:48;98109.22;;;19.34;58.76
15932;BME280;8065;49.520;11.284;2022-07-10T09:13:16;98110.00;;;19.35;58.58
15932;BME280;8065;49.520;11.284;2022-07-10T09:15:48;98107.47;;;19.22;57.95
15932;BME280;8065;49.520;11.284;2022-07-10T09:18:19;98103.41;;;19.09;58.57
15932;BME280;8065;49.520;11.284;2022-07-10T09:20:45;98111.56;;;19.36;58.06
15932;BME280;8065;49.520;11.284;2022-07-10T09:23:16;98118.63;;;19.44;57.44
15932;BME280;8065;49.520;11.284;2022-07-10T09:25:44;98117.66;;;19.32;56.99
15932;BME280;8065;49.520;11.284;2022-07-10T09:28:11;98115.72;;;19.10;57.09
15932;BME280;8065;49.520;11.284;2022-07-10T09:30:39;98116.44;;;19.07;57.72
15932;BME280;8065;49.520;11.284;2022-07-10T09:33:24;98118.81;;;19.31;57.67
15932;BME280;8065;49.520;11.284;2022-07-10T09:35:59;98118.75;;;19.51;57.15
15932;BME280;8065;49.520;11.284;2022-07-10T09:38:53;98119.72;;;19.62;56.67
15932;BME280;8065;49.520;11.284;2022-07-10T09:41:24;98119.72;;;19.62;56.17
15932;BME280;8065;49.520;11.284;2022-07-10T09:43:52;98120.97;;;19.45;56.74
15932;BME280;8065;49.520;11.284;2022-07-10T09:46:20;98134.22;;;19.54;56.45
15932;BME280;8065;49.520;11.284;2022-07-10T09:48:59;98127.84;;;19.43;56.57
15932;BME280;8065;49.520;11.284;2022-07-10T09:51:29;98125.31;;;19.30;57.30
15932;BME280;8065;49.520;11.284;2022-07-10T09:54:00;98116.53;;;19.33;56.90
15932;BME280;8065;49.520;11.284;2022-07-10T09:56:32;98117.50;;;19.45;56.25
15932;BME280;8065;49.520;11.284;2022-07-10T09:59:00;98111.22;;;19.60;56.20
15932;BME280;8065;49.520;11.284;2022-07-10T10:01:27;98113.09;;;19.56;55.16
15932;BME280;8065;49.520;11.284;2022-07-10T10:03:58;98113.78;;;19.30;55.00
15932;BME280;8065;49.520;11.284;2022-07-10T10:06:26;98118.22;;;19.64;55.28
15932;BME280;8065;49.520;11.284;2022-07-10T10:08:56;98122.44;;;19.88;55.08
15932;BME280;8065;49.520;11.284;2022-07-10T10:11:26;98117.88;;;19.92;53.97
15932;BME280;8065;49.520;11.284;2022-07-10T10:13:53;98116.09;;;20.04;54.88
15932;BME280;8065;49.520;11.284;2022-07-10T10:16:20;98120.72;;;20.03;55.24
15932;BME280;8065;49.520;11.284;2022-07-10T10:18:46;98119.88;;;19.99;55.65
15932;BME280;8065;49.520;11.284;2022-07-10T10:21:32;98124.31;;;19.84;55.65
15932;BME280;8065;49.520;11.284;2022-07-10T10:24:00;98128.13;;;19.57;56.10
15932;BME280;8065;49.520;11.284;2022-07-10T10:26:27;98125.56;;;19.90;55.86
15932;BME280;8065;49.520;11.284;2022-07-10T10:28:55;98119.75;;;19.88;55.55
15932;BME280;8065;49.520;11.284;2022-07-10T10:31:23;98122.72;;;20.10;55.59
15932;BME280;8065;49.520;11.284;2022-07-10T10:33:54;98124.00;;;19.89;55.70
15932;BME280;8065;49.520;11.284;2022-07-10T10:36:46;98113.06;;;19.79;56.38
15932;BME280;8065;49.520;11.284;2022-07-10T10:39:17;98115.81;;;19.82;56.19
15932;BME280;8065;49.520;11.284;2022-07-10T10:41:48;98128.34;;;19.71;56.24
15932;BME280;8065;49.520;11.284;2022-07-10T10:44:25;98126.06;;;19.73;56.81
15932;BME280;8065;49.520;11.284;2022-07-10T10:47:02;98124.31;;;19.84;56.63
15932;BME280;8065;49.520;11.284;2022-07-10T10:49:57;98119.13;;;19.72;57.29
15932;BME280;8065;49.520;11.284;2022-07-10T10:52:26;98116.84;;;19.74;56.98
15932;BME280;8065;49.520;11.284;2022-07-10T10:55:06;98118.28;;;19.68;56.38
15932;BME280;8065;49.520;11.284;2022-07-10T10:57:41;98121.56;;;19.35;57.00
15932;BME280;8065;49.520;11.284;2022-07-10T11:00:32;98124.00;;;19.44;57.41
15932;BME280;8065;49.520;11.284;2022-07-10T11:03:13;98126.19;;;19.57;57.93
15932;BME280;8065;49.520;11.284;2022-07-10T11:05:42;98134.66;;;19.56;57.89
15932;BME280;8065;49.520;11.284;2022-07-10T11:08:11;98135.84;;;19.58;58.09
15932;BME280;8065;49.520;11.284;2022-07-10T11:10:39;98134.09;;;19.47;58.08
15932;BME280;8065;49.520;11.284;2022-07-10T11:13:06;98132.72;;;19.56;58.49
15932;BME280;8065;49.520;11.284;2022-07-10T11:15:34;98125.22;;;19.69;58.16
15932;BME280;8065;49.520;11.284;2022-07-10T11:18:06;98120.88;;;19.61;58.75
15932;BME280;8065;49.520;11.284;2022-07-10T11:20:34;98126.78;;;19.70;59.10
15932;BME280;8065;49.520;11.284;2022-07-10T11:25:52;98125.41;;;19.80;59.29
15932;BME280;8065;49.520;11.284;2022-07-10T11:28:32;98124.88;;;19.97;58.74
15932;BME280;8065;49.520;11.284;2022-07-10T11:31:04;98119.72;;;20.15;58.98
15932;BME280;8065;49.520;11.284;2022-07-10T11:33:39;98116.66;;;20.16;58.22
15932;BME280;8065;49.520;11.284;2022-07-10T11:36:10;98124.59;;;20.32;59.51
15932;BME280;8065;49.520;11.284;2022-07-10T11:38:38;98113.25;;;20.49;58.81
15932;BME280;8065;49.520;11.284;2022-07-10T11:41:13;98114.69;;;20.40;57.09
15932;BME280;8065;49.520;11.284;2022-07-10T11:43:48;98122.19;;;20.27;57.96
15932;BME280;8065;49.520;11.284;2022-07-10T11:46:15;98125.00;;;20.08;56.92
15932;BME280;8065;49.520;11.284;2022-07-10T11:48:41;98128.44;;;20.31;57.16
15932;BME280;8065;49.520;11.284;2022-07-10T11:51:27;98120.69;;;20.29;57.37
15932;BME280;8065;49.520;11.284;2022-07-10T11:53:58;98113.19;;;20.42;57.29
15932;BME280;8065;49.520;11.284;2022-07-10T11:56:28;98112.75;;;20.40;56.68
15932;BME280;8065;49.520;11.284;2022-07-10T11:58:56;98106.34;;;20.52;56.75
15932;BME280;8065;49.520;11.284;2022-07-10T12:01:23;98103.19;;;20.46;56.53
15932;BME280;8065;49.520;11.284;2022-07-10T12:04:00;98112.84;;;20.47;58.66
15932;BME280;8065;49.520;11.284;2022-07-10T12:06:28;98104.84;;;20.54;57.02
15932;BME280;8065;49.520;11.284;2022-07-10T12:08:55;98100.47;;;20.76;56.00
15932;BME280;8065;49.520;11.284;2022-07-10T12:11:22;98099.03;;;20.89;57.73
15932;BME280;8065;49.520;11.284;2022-07-10T12:13:51;98095.56;;;20.89;55.98
15932;BME280;8065;49.520;11.284;2022-07-10T12:16:20;98096.69;;;20.88;54.31
15932;BME280;8065;49.520;11.284;2022-07-10T12:18:47;98097.31;;;20.71;54.32
15932;BME280;8065;49.520;11.284;2022-07-10T12:21:14;98100.50;;;20.83;53.46
15932;BME280;8065;49.520;11.284;2022-07-10T12:23:43;98095.19;;;20.90;53.65
15932;BME280;8065;49.520;11.284;2022-07-10T12:26:12;98095.03;;;21.13;54.05
15932;BME280;8065;49.520;11.284;2022-07-10T12:28:54;98098.16;;;21.19;54.15
15932;BME280;8065;49.520;11.284;2022-07-10T12:31:22;98095.63;;;21.33;52.78
15932;BME280;8065;49.520;11.284;2022-07-10T12:33:53;98103.44;;;21.42;52.40
15932;BME280;8065;49.520;11.284;2022-07-10T12:36:23;98098.84;;;21.49;51.27
15932;BME280;8065;49.520;11.284;2022-07-10T12:38:53;98102.81;;;21.63;51.27
15932;BME280;8065;49.520;11.284;2022-07-10T12:41:21;98086.34;;;21.85;52.06
15932;BME280;8065;49.520;11.284;2022-07-10T12:43:50;98091.34;;;21.80;50.99
15932;BME280;8065;49.520;11.284;2022-07-10T12:46:19;98093.69;;;21.85;51.75
15932;BME280;8065;49.520;11.284;2022-07-10T12:49:06;98093.06;;;22.06;51.69
15932;BME280;8065;49.520;11.284;2022-07-10T12:51:34;98095.50;;;22.25;50.95
15932;BME280;8065;49.520;11.284;2022-07-10T12:54:00;98089.03;;;22.47;50.60
15932;BME280;8065;49.520;11.284;2022-07-10T12:56:32;98090.91;;;22.33;49.02
15932;BME280;8065;49.520;11.284;2022-07-10T12:59:00;98088.19;;;22.33;50.05
15932;BME280;8065;49.520;11.284;2022-07-10T13:01:28;98096.28;;;22.26;50.22
15932;BME280;8065;49.520;11.284;2022-07-10T13:04:00;98096.75;;;21.83;50.48
15932;BME280;8065;49.520;11.284;2022-07-10T13:06:32;98106.81;;;21.83;52.24
15932;BME280;8065;49.520;11.284;2022-07-10T13:08:59;98098.38;;;21.91;51.71